createdAt,value
2023-03-30T00:00:00.820Z,2.10
2023-03-30T00:06:06.213Z,0.80
2023-03-30T00:12:09.793Z,1.00
2023-03-30T00:18:14.582Z,1.80
2023-03-30T00:24:18.045Z,1.08
2023-03-30T00:30:21.921Z,1.58
2023-03-30T00:36:26.800Z,1.77
2023-03-30T00:42:30.251Z,1.73
2023-03-30T00:48:34.636Z,1.50
2023-03-30T00:54:40.499Z,1.52
2023-03-30T01:00:47.117Z,3.63
2023-03-30T01:06:52.235Z,2.35
2023-03-30T01:12:57.049Z,3.38
2023-03-30T01:19:07.064Z,2.03
2023-03-30T01:25:21.983Z,1.42
2023-03-30T01:31:43.080Z,1.55
2023-03-30T01:38:00.933Z,2.17
2023-03-30T01:44:09.958Z,1.90
2023-03-30T01:50:15.648Z,2.92
2023-03-30T01:56:22.198Z,4.35
2023-03-30T02:02:29.218Z,2.55
2023-03-30T02:08:34.575Z,3.95
2023-03-30T02:14:38.532Z,4.40
2023-03-30T02:20:43.850Z,5.63
2023-03-30T02:26:48.226Z,2.95
2023-03-30T02:32:54.150Z,4.55
2023-03-30T02:39:05.159Z,3.97
2023-03-30T02:45:18.040Z,3.65
2023-03-30T02:51:29.888Z,3.60
2023-03-30T02:57:37.072Z,2.38
2023-03-30T03:03:42.780Z,4.38
2023-03-30T03:09:46.625Z,4.95
2023-03-30T03:15:55.631Z,6.93
2023-03-30T03:21:59.090Z,5.15
2023-03-30T03:28:02.539Z,5.82
2023-03-30T03:34:07.758Z,3.92
2023-03-30T03:40:12.074Z,3.15
2023-03-30T03:46:16.184Z,6.43
2023-03-30T03:52:20.983Z,3.17
2023-03-30T03:58:24.692Z,4.00
2023-03-30T04:04:28.764Z,5.07
2023-03-30T04:10:33.656Z,4.00
2023-03-30T04:16:37.369Z,4.15
2023-03-30T04:22:42.790Z,6.00
2023-03-30T04:28:48.028Z,6.00
2023-03-30T04:34:54.762Z,5.03
2023-03-30T04:40:58.893Z,4.70
2023-03-30T04:47:03.949Z,4.80
2023-03-30T04:53:07.548Z,3.97
2023-03-30T04:59:11.043Z,5.45
2023-03-30T05:05:16.004Z,5.53
2023-03-30T05:11:19.430Z,7.63
2023-03-30T05:17:22.852Z,8.48
2023-03-30T05:23:28.039Z,5.75
2023-03-30T05:29:31.876Z,9.15
2023-03-30T05:35:35.448Z,12.35
2023-03-30T05:41:40.854Z,11.98
2023-03-30T05:47:44.371Z,8.63
2023-03-30T05:53:47.959Z,9.27
2023-03-30T05:59:52.780Z,6.53
2023-03-30T06:05:56.229Z,6.90
2023-03-30T06:12:00.446Z,15.13
2023-03-30T06:18:06.026Z,10.77
2023-03-30T06:24:09.576Z,9.27
2023-03-30T06:30:13.568Z,13.55
2023-03-30T06:36:18.922Z,13.43
2023-03-30T06:42:22.410Z,10.20
2023-03-30T06:48:26.738Z,14.05
2023-03-30T06:54:31.851Z,12.55
2023-03-30T07:00:35.659Z,13.35
2023-03-30T07:06:39.152Z,7.38
2023-03-30T07:12:43.948Z,10.30
2023-03-30T07:18:47.369Z,14.65
2023-03-30T07:24:51.581Z,8.25
2023-03-30T07:30:57.063Z,15.45
2023-03-30T07:37:01.802Z,14.77
2023-03-30T07:43:05.675Z,15.63
2023-03-30T07:49:10.757Z,13.65
2023-03-30T07:55:14.427Z,13.50
2023-03-30T08:01:17.858Z,12.77
2023-03-30T08:07:22.726Z,16.17
2023-03-30T08:13:26.487Z,14.15
2023-03-30T08:19:30.072Z,13.10
2023-03-30T08:25:34.961Z,14.90
2023-03-30T08:31:38.389Z,10.82
2023-03-30T08:37:42.566Z,12.68
2023-03-30T08:43:52.753Z,12.68
2023-03-30T08:49:59.786Z,14.95
2023-03-30T08:56:04.791Z,8.52
2023-03-30T09:02:15.841Z,12.20
2023-03-30T09:08:21.673Z,12.38
2023-03-30T09:14:29.090Z,8.60
2023-03-30T09:20:35.738Z,7.15
2023-03-30T09:26:43.716Z,7.88
2023-03-30T09:32:51.303Z,9.57
2023-03-30T09:38:56.225Z,10.98
2023-03-30T09:45:01.791Z,11.07
2023-03-30T09:51:05.674Z,14.52
2023-03-30T09:57:23.873Z,11.85
2023-03-30T10:03:28.079Z,13.07
2023-03-30T10:09:31.897Z,10.73
2023-03-30T10:15:38.537Z,9.05
2023-03-30T10:21:47.083Z,15.55
2023-03-30T10:27:53.543Z,11.98
2023-03-30T10:33:59.191Z,11.75
2023-03-30T10:40:05.422Z,9.48
2023-03-30T10:46:19.350Z,17.13
2023-03-30T10:52:28.989Z,11.35
2023-03-30T10:58:40.139Z,11.82
2023-03-30T11:04:45.242Z,12.65
2023-03-30T11:10:51.792Z,12.02
2023-03-30T11:16:57.804Z,8.10
2023-03-30T11:23:05.246Z,10.30
2023-03-30T11:29:18.240Z,10.80
2023-03-30T11:35:27.314Z,13.32
2023-03-30T11:41:36.332Z,8.63
2023-03-30T11:47:49.381Z,11.40
2023-03-30T11:53:55.582Z,13.48
2023-03-30T12:00:09.812Z,8.43
2023-03-30T12:06:22.383Z,12.27
2023-03-30T12:12:28.816Z,10.30
2023-03-30T12:18:34.921Z,8.82
2023-03-30T12:24:42.049Z,5.90
2023-03-30T12:30:50.897Z,10.60
2023-03-30T12:36:56.300Z,6.82
2023-03-30T12:43:05.525Z,7.82
2023-03-30T12:49:11.024Z,8.07
2023-03-30T12:55:19.133Z,11.18
2023-03-30T13:01:28.866Z,9.95
2023-03-30T13:07:36.421Z,8.68
2023-03-30T13:13:51.830Z,10.48
2023-03-30T13:20:26.541Z,10.52
2023-03-30T13:26:43.281Z,8.27
2023-03-30T13:32:51.498Z,11.07
2023-03-30T13:39:04.041Z,10.93
2023-03-30T13:45:15.043Z,11.50
2023-03-30T13:51:21.301Z,6.22
2023-03-30T13:57:27.326Z,4.18
2023-03-30T14:03:33.689Z,6.93
2023-03-30T14:09:37.127Z,6.00
2023-03-30T14:15:42.163Z,4.32
2023-03-30T14:21:47.807Z,6.18
2023-03-30T14:27:51.512Z,4.20
2023-03-30T14:33:55.321Z,8.77
2023-03-30T14:40:00.362Z,4.97
2023-03-30T14:46:06.700Z,8.52
2023-03-30T14:52:11.317Z,5.00
2023-03-30T14:58:17.359Z,7.70
2023-03-30T15:04:22.337Z,10.65
2023-03-30T15:10:27.781Z,8.05
2023-03-30T15:16:34.236Z,8.57
2023-03-30T15:22:39.118Z,6.28
2023-03-30T15:28:45.842Z,9.35
2023-03-30T15:35:01.052Z,10.20
2023-03-30T15:41:05.513Z,8.05
2023-03-30T15:47:12.306Z,9.48
2023-03-30T15:53:21.035Z,8.30
2023-03-30T15:59:32.553Z,7.47
2023-03-30T16:05:36.143Z,9.20
2023-03-30T16:11:41.382Z,8.50
2023-03-30T16:17:45.021Z,9.88
2023-03-30T16:23:48.733Z,8.15
2023-03-30T16:29:53.839Z,9.15
2023-03-30T16:35:57.611Z,10.02
2023-03-30T16:42:01.466Z,6.22
2023-03-30T16:48:06.597Z,12.73
2023-03-30T16:54:19.794Z,7.72
2023-03-30T17:00:32.178Z,19.63
2023-03-30T17:06:37.145Z,15.88
2023-03-30T17:12:41.792Z,8.02
2023-03-30T17:18:45.713Z,9.55
2023-03-30T17:24:50.533Z,7.07
2023-03-30T17:30:54.852Z,10.18
2023-03-30T17:36:58.649Z,6.38
2023-03-30T17:43:03.535Z,8.48
2023-03-30T17:49:14.286Z,8.82
2023-03-30T17:55:17.879Z,11.10
2023-03-30T18:01:22.689Z,8.93
2023-03-30T18:07:26.190Z,12.20
2023-03-30T18:13:30.604Z,8.10
2023-03-30T18:19:35.545Z,14.60
2023-03-30T18:25:39.281Z,7.53
2023-03-30T18:31:42.889Z,10.30
2023-03-30T18:37:50.492Z,10.57
2023-03-30T18:43:54.060Z,12.02
2023-03-30T18:49:57.602Z,13.80
2023-03-30T18:56:03.490Z,10.70
2023-03-30T19:02:07.327Z,10.02
2023-03-30T19:08:12.564Z,11.25
2023-03-30T19:14:18.119Z,12.38
2023-03-30T19:20:22.527Z,13.77
2023-03-30T19:26:26.041Z,10.93
2023-03-30T19:32:33.307Z,11.20
2023-03-30T19:38:37.250Z,9.82
2023-03-30T19:44:40.779Z,14.48
2023-03-30T19:50:45.962Z,13.50
2023-03-30T19:56:51.416Z,11.73
2023-03-30T20:02:56.529Z,8.35
2023-03-30T20:09:01.522Z,11.90
2023-03-30T20:15:08.466Z,8.85
2023-03-30T20:21:11.877Z,9.98
2023-03-30T20:27:16.965Z,14.40
2023-03-30T20:33:20.543Z,11.90
2023-03-30T20:39:27.300Z,11.05
2023-03-30T20:45:32.598Z,12.30
2023-03-30T20:51:38.941Z,10.10
2023-03-30T20:57:43.741Z,6.75
2023-03-30T21:03:50.208Z,8.68
2023-03-30T21:09:53.932Z,4.78
2023-03-30T21:15:58.476Z,7.15
2023-03-30T21:22:03.318Z,6.38
2023-03-30T21:28:07.087Z,7.40
2023-03-30T21:34:11.521Z,4.97
2023-03-30T21:40:16.360Z,5.25
2023-03-30T21:46:21.028Z,5.40
2023-03-30T21:52:24.500Z,5.88
2023-03-30T21:58:29.627Z,5.60
2023-03-30T22:04:33.004Z,6.68
2023-03-30T22:10:36.527Z,5.55
2023-03-30T22:16:42.939Z,4.68
2023-03-30T22:22:46.662Z,6.40
2023-03-30T22:28:50.125Z,5.25
2023-03-30T22:34:54.943Z,5.60
2023-03-30T22:41:05.470Z,7.82
2023-03-30T22:47:10.722Z,2.95
2023-03-30T22:53:15.503Z,4.45
2023-03-30T22:59:18.967Z,6.88
2023-03-30T23:05:23.340Z,6.13
2023-03-30T23:11:29.080Z,5.35
2023-03-30T23:17:35.796Z,3.97
2023-03-30T23:23:39.587Z,6.43
2023-03-30T23:29:44.540Z,4.97
2023-03-30T23:35:50.921Z,6.25
2023-03-30T23:41:54.407Z,6.97
2023-03-30T23:47:59.610Z,7.15
2023-03-30T23:54:06.338Z,5.50
